Time;durP1;ratioP1;P1;durP2;ratioP2;P2;SDS_P1;SDS_P2;PMS_P1;PMS_P2;Temp;Humidity;BMP_temperature;BMP_pressure;BME280_temperature;BME280_humidity;BME280_pressure;Samples;Min_cycle;Max_cycle;Signal;HPM_P1;HPM_P2
2022/06/15 00:01:02;;;;;;;3.89;1.33;;;;;;;;;;348914;151;858007;-58
2022/06/15 00:02:04;;;;;;;5.14;2.04;;;;;;;;;;347892;151;856144;-58
2022/06/15 00:03:05;;;;;;;1.92;1.29;;;;;;;;;;349647;151;857569;-57
2022/06/15 00:04:07;;;;;;;4.09;1.62;;;;;;;;;;349327;151;857244;-58
2022/06/15 00:05:09;;;;;;;2.65;1.39;;;;;;;;;;348625;151;857255;-57
2022/06/15 00:06:13;;;;;;;3.39;1.46;;;;;;;;;;348071;151;865801;-58
2022/06/15 00:07:15;;;;;;;3.43;1.51;;;;;;;;;;348024;151;857229;-57
2022/06/15 00:08:16;;;;;;;2.37;1.87;;;;;;;;;;348466;151;860399;-57
2022/06/15 00:09:18;;;;;;;4.48;1.33;;;;;;;;;;348162;151;866003;-57
2022/06/15 00:10:20;;;;;;;4.25;1.54;;;;;;;;;;348170;151;859033;-57
2022/06/15 00:11:24;;;;;;;6.40;1.34;;;;;;;;;;348726;151;857219;-58
2022/06/15 00:12:26;;;;;;;3.17;1.21;;;;;;;;;;348864;151;858128;-57
2022/06/15 00:13:29;;;;;;;2.32;1.36;;;;;;;;;;349372;151;864557;-58
2022/06/15 00:14:30;;;;;;;3.12;1.39;;;;;;;;;;349439;151;864449;-57
2022/06/15 00:15:32;;;;;;;2.58;1.48;;;;;;;;;;351032;151;857199;-58
2022/06/15 00:16:34;;;;;;;4.00;1.44;;;;;;;;;;341003;154;865365;-59
2022/06/15 00:17:35;;;;;;;3.84;1.46;;;;;;;;;;343502;153;857306;-58
2022/06/15 00:18:37;;;;;;;3.41;1.59;;;;;;;;;;342673;153;857908;-56
2022/06/15 00:19:39;;;;;;;2.61;1.27;;;;;;;;;;342628;153;857761;-57
2022/06/15 00:20:41;;;;;;;3.75;1.46;;;;;;;;;;343375;153;859402;-57
2022/06/15 00:21:43;;;;;;;4.25;1.79;;;;;;;;;;341848;153;866583;-58
2022/06/15 00:22:45;;;;;;;2.63;1.49;;;;;;;;;;347012;154;858519;-57
2022/06/15 00:23:47;;;;;;;3.75;1.45;;;;;;;;;;349078;152;856229;-58
2022/06/15 00:24:48;;;;;;;2.42;1.17;;;;;;;;;;347922;152;867399;-58
2022/06/15 00:25:53;;;;;;;4.44;1.39;;;;;;;;;;349035;152;864990;-58
2022/06/15 00:26:55;;;;;;;3.91;1.55;;;;;;;;;;347292;152;859094;-58
2022/06/15 00:27:56;;;;;;;5.01;1.50;;;;;;;;;;347830;152;857869;-58
2022/06/15 00:28:58;;;;;;;3.99;1.54;;;;;;;;;;348068;152;857827;-57
2022/06/15 00:30:00;;;;;;;2.20;1.41;;;;;;;;;;348702;151;858177;-58
2022/06/15 00:31:01;;;;;;;2.41;1.37;;;;;;;;;;347731;151;864831;-58
2022/06/15 00:32:04;;;;;;;3.11;1.61;;;;;;;;;;348368;151;865227;-59
2022/06/15 00:33:06;;;;;;;4.17;1.51;;;;;;;;;;341917;155;857823;-59
2022/06/15 00:34:07;;;;;;;2.84;1.52;;;;;;;;;;350435;150;866173;-57
2022/06/15 00:35:09;;;;;;;2.76;1.40;;;;;;;;;;356264;148;856423;-58
2022/06/15 00:36:13;;;;;;;3.65;1.64;;;;;;;;;;356373;148;856987;-58
2022/06/15 00:37:14;;;;;;;3.31;1.52;;;;;;;;;;356161;148;857529;-57
2022/06/15 00:38:16;;;;;;;2.22;1.41;;;;;;;;;;355947;148;865568;-57
2022/06/15 00:39:34;;;;;;;4.33;1.29;;;;;;;;;;352138;150;858549;-58
2022/06/15 00:40:36;;;;;;;5.11;1.65;;;;;;;;;;355843;148;857300;-58
2022/06/15 00:41:39;;;;;;;3.14;1.52;;;;;;;;;;355855;148;865042;-58
2022/06/15 00:42:40;;;;;;;2.77;1.26;;;;;;;;;;356030;149;857342;-59
2022/06/15 00:43:44;;;;;;;4.97;1.35;;;;;;;;;;355786;148;864490;-58
2022/06/15 00:44:46;;;;;;;4.40;1.57;;;;;;;;;;350403;150;857190;-58
2022/06/15 00:45:48;;;;;;;3.23;1.65;;;;;;;;;;350038;151;858156;-59
2022/06/15 00:46:53;;;;;;;3.13;1.39;;;;;;;;;;356847;148;858346;-59
2022/06/15 00:47:55;;;;;;;3.93;1.61;;;;;;;;;;355625;148;857285;-59
2022/06/15 00:49:05;;;;;;;2.84;1.42;;;;;;;;;;355852;148;857303;-58
2022/06/15 00:50:12;;;;;;;6.18;1.71;;;;;;;;;;356502;148;866121;-59
2022/06/15 00:51:14;;;;;;;3.37;1.33;;;;;;;;;;355807;148;865703;-58
2022/06/15 00:52:17;;;;;;;3.06;1.23;;;;;;;;;;356598;148;859027;-58
2022/06/15 00:53:19;;;;;;;2.33;1.49;;;;;;;;;;353923;151;857545;-59
2022/06/15 00:54:21;;;;;;;1.60;1.28;;;;;;;;;;355148;149;859579;-59
2022/06/15 00:55:23;;;;;;;3.63;1.51;;;;;;;;;;356687;148;865058;-57
2022/06/15 00:56:26;;;;;;;2.74;1.49;;;;;;;;;;356809;148;857301;-59
2022/06/15 00:57:27;;;;;;;2.57;1.41;;;;;;;;;;356053;150;856350;-59
2022/06/15 00:58:29;;;;;;;2.97;1.32;;;;;;;;;;356106;148;857446;-58
2022/06/15 00:59:41;;;;;;;2.35;1.53;;;;;;;;;;353946;149;864472;-57
2022/06/15 01:00:43;;;;;;;2.15;1.34;;;;;;;;;;354576;150;859242;-58
2022/06/15 01:01:45;;;;;;;1.89;1.30;;;;;;;;;;355464;148;857502;-58
2022/06/15 01:02:47;;;;;;;4.08;1.56;;;;;;;;;;355271;149;858986;-58
2022/06/15 01:03:49;;;;;;;5.08;1.52;;;;;;;;;;356569;148;865308;-57
2022/06/15 01:04:53;;;;;;;2.17;1.25;;;;;;;;;;355860;148;865586;-57
2022/06/15 01:06:06;;;;;;;3.02;1.22;;;;;;;;;;353726;150;857827;-57
2022/06/15 01:07:10;;;;;;;2.28;1.31;;;;;;;;;;354670;149;857401;-58
2022/06/15 01:08:16;;;;;;;2.86;1.40;;;;;;;;;;354433;149;858280;-58
2022/06/15 01:09:23;;;;;;;3.40;1.29;;;;;;;;;;356837;148;865321;-59
2022/06/15 01:10:35;;;;;;;2.71;1.38;;;;;;;;;;355765;148;859743;-57
2022/06/15 01:11:42;;;;;;;3.14;1.51;;;;;;;;;;354597;148;857607;-58
2022/06/15 01:12:53;;;;;;;4.15;1.81;;;;;;;;;;361722;148;857668;-59
2022/06/15 01:14:13;;;;;;;4.21;1.55;;;;;;;;;;362406;146;859271;-59
2022/06/15 01:15:26;;;;;;;2.98;1.29;;;;;;;;;;362175;147;857375;-59
2022/06/15 01:16:37;;;;;;;3.07;1.76;;;;;;;;;;360042;147;863920;-58
2022/06/15 01:17:46;;;;;;;3.42;1.52;;;;;;;;;;363269;146;857776;-58
2022/06/15 01:18:53;;;;;;;5.38;1.40;;;;;;;;;;354893;151;856528;-59
2022/06/15 01:20:15;;;;;;;3.62;1.37;;;;;;;;;;344992;155;859118;-59
2022/06/15 01:21:25;;;;;;;4.72;1.51;;;;;;;;;;347620;152;857292;-59
2022/06/15 01:22:46;;;;;;;2.67;1.66;;;;;;;;;;349403;152;857230;-58
2022/06/15 01:23:49;;;;;;;2.82;1.48;;;;;;;;;;348817;151;857579;-59
2022/06/15 01:24:54;;;;;;;3.75;1.64;;;;;;;;;;348526;151;858781;-59
2022/06/15 01:26:01;;;;;;;5.17;2.65;;;;;;;;;;349784;151;857201;-58
2022/06/15 01:27:11;;;;;;;2.51;1.36;;;;;;;;;;345392;151;857221;-58
2022/06/15 01:28:18;;;;;;;3.62;1.52;;;;;;;;;;347066;145;856103;-59
2022/06/15 01:29:30;;;;;;;5.33;1.46;;;;;;;;;;345520;152;858604;-58
2022/06/15 01:30:37;;;;;;;3.80;1.43;;;;;;;;;;346140;152;858115;-59
2022/06/15 01:31:41;;;;;;;3.58;1.40;;;;;;;;;;345845;152;857184;-58
2022/06/15 01:32:51;;;;;;;3.68;1.60;;;;;;;;;;334395;153;857470;-59
2022/06/15 01:34:12;;;;;;;2.99;1.65;;;;;;;;;;344424;152;857445;-61
2022/06/15 01:35:32;;;;;;;5.11;1.61;;;;;;;;;;345183;152;857024;-58
2022/06/15 01:36:39;;;;;;;4.21;1.53;;;;;;;;;;344604;152;858930;-60
2022/06/15 01:37:42;;;;;;;2.62;1.60;;;;;;;;;;339933;155;858998;-60
2022/06/15 01:38:55;;;;;;;2.41;1.37;;;;;;;;;;340520;152;857429;-58
2022/06/15 01:39:58;;;;;;;3.82;1.42;;;;;;;;;;346080;152;857394;-59
2022/06/15 01:41:04;;;;;;;3.01;1.44;;;;;;;;;;338937;156;857932;-59
2022/06/15 01:42:08;;;;;;;3.36;1.53;;;;;;;;;;338983;155;856318;-57
2022/06/15 01:43:12;;;;;;;2.66;1.34;;;;;;;;;;346348;152;858848;-57
2022/06/15 01:44:15;;;;;;;1.90;1.32;;;;;;;;;;345632;152;858938;-59
2022/06/15 01:45:18;;;;;;;4.39;1.49;;;;;;;;;;345890;152;858385;-58
2022/06/15 01:46:20;;;;;;;3.74;1.64;;;;;;;;;;344751;152;858917;-57
2022/06/15 01:47:22;;;;;;;2.13;1.48;;;;;;;;;;346855;152;857652;-60
2022/06/15 01:48:24;;;;;;;2.50;1.38;;;;;;;;;;345362;152;857252;-59
2022/06/15 01:49:26;;;;;;;1.71;1.27;;;;;;;;;;339243;155;859811;-59
2022/06/15 01:50:30;;;;;;;5.84;1.61;;;;;;;;;;340150;155;864840;-58
2022/06/15 01:51:35;;;;;;;7.64;1.47;;;;;;;;;;346688;152;858224;-58
2022/06/15 01:52:41;;;;;;;5.11;1.43;;;;;;;;;;346221;152;857225;-57
2022/06/15 01:53:54;;;;;;;3.19;1.49;;;;;;;;;;345589;152;857255;-58
2022/06/15 01:54:58;;;;;;;4.96;2.12;;;;;;;;;;347727;152;858161;-59
2022/06/15 01:56:04;;;;;;;3.04;1.46;;;;;;;;;;345141;152;857386;-58
2022/06/15 01:57:06;;;;;;;3.45;1.44;;;;;;;;;;347825;152;864754;-56
2022/06/15 01:58:08;;;;;;;4.11;1.52;;;;;;;;;;346105;152;860065;-57
2022/06/15 01:59:12;;;;;;;2.86;1.57;;;;;;;;;;346181;152;859281;-58
2022/06/15 02:00:16;;;;;;;3.29;1.49;;;;;;;;;;339163;157;858765;-58
2022/06/15 02:01:37;;;;;;;4.41;1.49;;;;;;;;;;338896;155;865929;-58
2022/06/15 02:02:41;;;;;;;3.99;1.62;;;;;;;;;;339268;155;858564;-58
2022/06/15 02:03:51;;;;;;;4.40;1.50;;;;;;;;;;339094;155;866457;-60
2022/06/15 02:05:00;;;;;;;1.82;1.49;;;;;;;;;;339787;155;857371;-58
2022/06/15 02:06:10;;;;;;;2.66;1.48;;;;;;;;;;337600;156;857220;-58
2022/06/15 02:07:14;;;;;;;2.52;1.39;;;;;;;;;;337262;155;857699;-58
2022/06/15 02:08:23;;;;;;;3.23;1.54;;;;;;;;;;338261;157;859849;-58
2022/06/15 02:09:27;;;;;;;3.53;1.91;;;;;;;;;;334021;158;857185;-59
2022/06/15 02:10:30;;;;;;;2.97;1.51;;;;;;;;;;331882;158;859156;-58
2022/06/15 02:11:34;;;;;;;5.36;1.51;;;;;;;;;;333012;158;857240;-59
2022/06/15 02:12:38;;;;;;;2.36;1.37;;;;;;;;;;335592;158;857770;-58
2022/06/15 02:13:50;;;;;;;3.43;1.42;;;;;;;;;;339889;155;857205;-59
2022/06/15 02:14:53;;;;;;;4.11;1.50;;;;;;;;;;338737;155;857318;-58
2022/06/15 02:15:56;;;;;;;3.11;1.57;;;;;;;;;;339797;155;858923;-59
2022/06/15 02:17:02;;;;;;;3.53;1.71;;;;;;;;;;332427;158;856526;-59
2022/06/15 02:18:04;;;;;;;3.38;1.47;;;;;;;;;;333897;158;859320;-58
2022/06/15 02:19:07;;;;;;;2.98;1.47;;;;;;;;;;331275;159;857211;-57
2022/06/15 02:20:11;;;;;;;4.41;1.61;;;;;;;;;;331615;159;858632;-59
2022/06/15 02:21:15;;;;;;;5.20;1.56;;;;;;;;;;334896;157;859114;-60
2022/06/15 02:22:19;;;;;;;3.87;1.79;;;;;;;;;;334826;157;857248;-59
2022/06/15 02:23:22;;;;;;;4.88;1.64;;;;;;;;;;334935;157;865634;-59
2022/06/15 02:24:23;;;;;;;2.73;1.33;;;;;;;;;;333851;157;866567;-58
2022/06/15 02:25:26;;;;;;;2.93;1.48;;;;;;;;;;336244;157;863804;-59
2022/06/15 02:26:31;;;;;;;5.37;1.41;;;;;;;;;;336693;157;859336;-59
2022/06/15 02:27:33;;;;;;;4.32;1.49;;;;;;;;;;334755;157;857229;-60
2022/06/15 02:28:36;;;;;;;2.64;1.61;;;;;;;;;;338901;155;859349;-58
2022/06/15 02:29:37;;;;;;;4.28;1.58;;;;;;;;;;341603;155;859113;-59
2022/06/15 02:30:40;;;;;;;1.89;1.71;;;;;;;;;;346397;152;860000;-60
2022/06/15 02:31:42;;;;;;;2.71;1.46;;;;;;;;;;337791;155;865737;-61
2022/06/15 02:32:45;;;;;;;5.18;1.64;;;;;;;;;;337273;155;857692;-59
2022/06/15 02:33:48;;;;;;;6.00;1.42;;;;;;;;;;336739;156;864728;-58
2022/06/15 02:34:50;;;;;;;2.86;1.52;;;;;;;;;;344936;153;857384;-58
2022/06/15 02:35:52;;;;;;;4.87;1.54;;;;;;;;;;345719;153;859743;-58
2022/06/15 02:36:54;;;;;;;4.53;1.61;;;;;;;;;;345448;153;857372;-58
2022/06/15 02:37:56;;;;;;;6.79;1.64;;;;;;;;;;344777;153;856411;-58
2022/06/15 02:38:58;;;;;;;5.19;1.72;;;;;;;;;;345163;153;857429;-58
2022/06/15 02:40:00;;;;;;;8.68;2.33;;;;;;;;;;345939;153;857227;-58
2022/06/15 02:41:01;;;;;;;5.64;1.56;;;;;;;;;;344202;153;857218;-58
2022/06/15 02:42:05;;;;;;;5.08;1.88;;;;;;;;;;344075;153;859027;-58
2022/06/15 02:43:07;;;;;;;3.59;1.35;;;;;;;;;;340556;153;857348;-58
2022/06/15 02:44:09;;;;;;;4.78;1.83;;;;;;;;;;347484;153;859330;-59
2022/06/15 02:45:12;;;;;;;1.98;1.43;;;;;;;;;;343656;152;857429;-58
2022/06/15 02:46:14;;;;;;;2.26;1.39;;;;;;;;;;343799;152;857247;-58
2022/06/15 02:47:16;;;;;;;7.18;1.78;;;;;;;;;;340233;155;857262;-58
2022/06/15 02:48:17;;;;;;;5.51;1.34;;;;;;;;;;346767;152;857372;-59
2022/06/15 02:49:19;;;;;;;4.31;1.47;;;;;;;;;;352813;149;866410;-59
2022/06/15 02:50:21;;;;;;;4.93;1.55;;;;;;;;;;353437;149;858312;-59
2022/06/15 02:51:24;;;;;;;11.81;2.69;;;;;;;;;;354392;149;857202;-58
2022/06/15 02:52:28;;;;;;;5.21;1.42;;;;;;;;;;354595;149;863630;-58
2022/06/15 02:53:29;;;;;;;3.37;1.51;;;;;;;;;;352525;149;859178;-57
2022/06/15 02:54:37;;;;;;;3.44;1.65;;;;;;;;;;352312;149;858358;-58
2022/06/15 02:55:39;;;;;;;1.67;1.16;;;;;;;;;;349552;149;857289;-58
2022/06/15 02:56:41;;;;;;;4.04;1.48;;;;;;;;;;352742;149;858776;-58
2022/06/15 02:57:46;;;;;;;5.96;2.18;;;;;;;;;;352894;149;859763;-59
2022/06/15 02:58:48;;;;;;;3.13;1.42;;;;;;;;;;354095;149;856247;-60
2022/06/15 02:59:50;;;;;;;4.68;1.55;;;;;;;;;;354226;149;857859;-59
2022/06/15 03:00:53;;;;;;;2.25;1.49;;;;;;;;;;353652;149;857364;-59
2022/06/15 03:01:56;;;;;;;3.04;1.34;;;;;;;;;;352404;149;857317;-60
2022/06/15 03:02:57;;;;;;;2.89;1.30;;;;;;;;;;353566;149;859100;-60
2022/06/15 03:03:59;;;;;;;5.00;1.64;;;;;;;;;;353444;149;856956;-60
2022/06/15 03:05:01;;;;;;;5.76;1.67;;;;;;;;;;353418;149;856439;-58
2022/06/15 03:06:02;;;;;;;4.54;1.40;;;;;;;;;;353958;149;863620;-58
2022/06/15 03:07:04;;;;;;;2.33;1.33;;;;;;;;;;352827;149;856531;-59
2022/06/15 03:08:05;;;;;;;2.42;1.51;;;;;;;;;;353721;149;863700;-59
2022/06/15 03:09:07;;;;;;;3.07;1.38;;;;;;;;;;353106;149;856157;-59
2022/06/15 03:10:09;;;;;;;4.75;1.33;;;;;;;;;;352741;149;856307;-59
2022/06/15 03:11:11;;;;;;;3.35;1.36;;;;;;;;;;353080;149;856167;-59
2022/06/15 03:12:13;;;;;;;4.53;1.41;;;;;;;;;;353660;149;858240;-59
2022/06/15 03:13:14;;;;;;;3.26;1.67;;;;;;;;;;352304;149;863596;-58
2022/06/15 03:14:16;;;;;;;3.80;1.70;;;;;;;;;;352710;149;863298;-58
2022/06/15 03:15:19;;;;;;;3.84;1.46;;;;;;;;;;353775;149;856317;-58
2022/06/15 03:16:21;;;;;;;4.48;1.15;;;;;;;;;;353802;149;856209;-57
2022/06/15 03:17:23;;;;;;;5.17;1.55;;;;;;;;;;352683;149;859197;-58
2022/06/15 03:18:26;;;;;;;2.94;1.59;;;;;;;;;;352930;149;856828;-60
2022/06/15 03:19:28;;;;;;;3.16;1.27;;;;;;;;;;339195;155;856841;-59
2022/06/15 03:20:30;;;;;;;3.76;1.46;;;;;;;;;;345215;154;856193;-58
2022/06/15 03:21:31;;;;;;;4.01;1.43;;;;;;;;;;343238;152;856176;-59
2022/06/15 03:22:33;;;;;;;1.85;1.11;;;;;;;;;;344807;152;863534;-59
2022/06/15 03:23:35;;;;;;;3.54;1.29;;;;;;;;;;339839;155;856159;-61
2022/06/15 03:24:36;;;;;;;6.74;1.45;;;;;;;;;;346095;152;856132;-60
2022/06/15 03:25:38;;;;;;;3.02;1.24;;;;;;;;;;345454;152;856268;-59
2022/06/15 03:26:40;;;;;;;4.92;1.61;;;;;;;;;;344828;152;856282;-60
2022/06/15 03:27:41;;;;;;;3.17;1.34;;;;;;;;;;346206;152;863648;-59
2022/06/15 03:28:43;;;;;;;5.91;1.36;;;;;;;;;;345022;152;864120;-59
2022/06/15 03:29:45;;;;;;;4.27;1.40;;;;;;;;;;341209;154;863495;-59
2022/06/15 03:30:47;;;;;;;2.51;1.49;;;;;;;;;;336778;157;856304;-60
2022/06/15 03:31:48;;;;;;;3.99;1.48;;;;;;;;;;337580;157;856288;-60
2022/06/15 03:32:50;;;;;;;4.13;1.31;;;;;;;;;;333852;157;856405;-59
2022/06/15 03:33:52;;;;;;;3.12;1.30;;;;;;;;;;345563;153;856435;-59
2022/06/15 03:34:54;;;;;;;3.30;1.52;;;;;;;;;;344733;153;858512;-58
2022/06/15 03:35:57;;;;;;;3.49;1.46;;;;;;;;;;345658;153;856828;-57
2022/06/15 03:36:59;;;;;;;3.12;1.48;;;;;;;;;;343939;153;864720;-58
2022/06/15 03:38:01;;;;;;;7.58;1.67;;;;;;;;;;344725;153;859508;-58
2022/06/15 03:39:03;;;;;;;3.33;1.47;;;;;;;;;;344555;153;858876;-57
2022/06/15 03:40:09;;;;;;;4.35;1.25;;;;;;;;;;344667;153;857166;-58
2022/06/15 03:41:11;;;;;;;2.97;1.60;;;;;;;;;;344582;153;864590;-59
2022/06/15 03:42:17;;;;;;;2.98;1.63;;;;;;;;;;345279;153;858600;-60
2022/06/15 03:43:20;;;;;;;4.19;1.56;;;;;;;;;;344889;153;864734;-58
2022/06/15 03:44:21;;;;;;;5.97;1.34;;;;;;;;;;345039;153;857883;-60
2022/06/15 03:45:23;;;;;;;2.14;1.44;;;;;;;;;;344967;153;857458;-60
2022/06/15 03:46:25;;;;;;;3.04;1.31;;;;;;;;;;345336;153;858435;-61
2022/06/15 03:47:26;;;;;;;4.56;1.56;;;;;;;;;;344909;153;864057;-60
2022/06/15 03:48:28;;;;;;;7.01;1.59;;;;;;;;;;345459;153;857302;-61
2022/06/15 03:49:29;;;;;;;2.70;1.40;;;;;;;;;;344043;153;863603;-59
2022/06/15 03:50:32;;;;;;;5.89;1.46;;;;;;;;;;345260;153;859019;-58
2022/06/15 03:51:33;;;;;;;6.67;1.51;;;;;;;;;;344902;153;865928;-58
2022/06/15 03:52:35;;;;;;;2.80;1.41;;;;;;;;;;344742;153;857972;-58
2022/06/15 03:53:37;;;;;;;3.27;1.44;;;;;;;;;;345527;153;866667;-59
2022/06/15 03:54:38;;;;;;;5.44;1.56;;;;;;;;;;342835;153;859196;-58
2022/06/15 03:55:40;;;;;;;4.90;1.66;;;;;;;;;;345324;153;857463;-58
2022/06/15 03:56:43;;;;;;;4.41;1.63;;;;;;;;;;343604;153;866336;-59
2022/06/15 03:57:44;;;;;;;4.27;1.26;;;;;;;;;;344540;153;865446;-58
2022/06/15 03:58:46;;;;;;;4.44;1.77;;;;;;;;;;344631;153;857909;-57
2022/06/15 03:59:48;;;;;;;3.34;1.52;;;;;;;;;;345206;153;859174;-58
2022/06/15 04:00:50;;;;;;;9.14;1.99;;;;;;;;;;344679;156;865341;-58
2022/06/15 04:01:51;;;;;;;4.83;1.54;;;;;;;;;;344778;153;866760;-58
2022/06/15 04:02:53;;;;;;;4.89;1.47;;;;;;;;;;343937;153;867657;-58
2022/06/15 04:03:55;;;;;;;4.10;1.54;;;;;;;;;;344776;153;857813;-58
2022/06/15 04:04:56;;;;;;;4.71;1.77;;;;;;;;;;343905;153;856596;-58
2022/06/15 04:05:58;;;;;;;4.10;1.51;;;;;;;;;;344689;153;860912;-58
2022/06/15 04:06:59;;;;;;;3.33;1.61;;;;;;;;;;344681;153;858783;-57
2022/06/15 04:09:21;;;;;;;3.93;1.38;;;;;;;;;;342815;153;857746;-57
2022/06/15 04:10:23;;;;;;;3.36;1.57;;;;;;;;;;343232;153;857419;-59
2022/06/15 04:12:45;;;;;;;4.89;1.58;;;;;;;;;;344621;153;864819;-59
2022/06/15 04:13:47;;;;;;;1.95;1.37;;;;;;;;;;343724;153;857202;-59
2022/06/15 04:14:49;;;;;;;4.37;1.37;;;;;;;;;;344031;152;865914;-59
2022/06/15 04:15:50;;;;;;;6.06;1.49;;;;;;;;;;344633;153;863587;-60
2022/06/15 04:16:56;;;;;;;5.98;1.49;;;;;;;;;;344312;153;857365;-59
2022/06/15 04:17:58;;;;;;;3.65;1.40;;;;;;;;;;345215;153;865249;-59
2022/06/15 04:19:02;;;;;;;3.77;1.29;;;;;;;;;;344050;153;860064;-59
2022/06/15 04:21:24;;;;;;;2.64;1.24;;;;;;;;;;343361;153;857313;-60
2022/06/15 04:22:25;;;;;;;5.23;1.59;;;;;;;;;;344336;153;856239;-57
2022/06/15 04:23:27;;;;;;;3.71;1.16;;;;;;;;;;339589;155;864728;-59
2022/06/15 04:24:29;;;;;;;5.54;1.18;;;;;;;;;;339661;156;865735;-59
2022/06/15 04:25:31;;;;;;;3.99;1.29;;;;;;;;;;349607;151;858937;-60
2022/06/15 04:26:33;;;;;;;4.92;1.27;;;;;;;;;;347819;151;857287;-56
2022/06/15 04:27:36;;;;;;;5.04;1.21;;;;;;;;;;349374;151;857246;-58
2022/06/15 04:28:39;;;;;;;3.25;1.22;;;;;;;;;;347791;151;865728;-59
2022/06/15 04:29:41;;;;;;;5.06;1.34;;;;;;;;;;345893;149;861392;-58
2022/06/15 04:30:42;;;;;;;3.99;1.28;;;;;;;;;;344870;153;857308;-58
2022/06/15 04:31:44;;;;;;;4.97;1.32;;;;;;;;;;344797;153;863444;-58
2022/06/15 04:32:46;;;;;;;2.81;1.44;;;;;;;;;;344694;153;856369;-59
2022/06/15 04:33:47;;;;;;;3.80;1.34;;;;;;;;;;345462;153;856186;-59
2022/06/15 04:34:49;;;;;;;5.00;1.24;;;;;;;;;;343681;153;856403;-57
2022/06/15 04:35:50;;;;;;;4.14;1.30;;;;;;;;;;344332;153;856965;-57
2022/06/15 04:36:52;;;;;;;3.12;1.04;;;;;;;;;;345175;153;856723;-56
2022/06/15 04:37:54;;;;;;;5.50;1.21;;;;;;;;;;345536;153;864028;-58
2022/06/15 04:38:56;;;;;;;2.26;1.08;;;;;;;;;;345061;153;856514;-58
2022/06/15 04:39:57;;;;;;;5.04;1.12;;;;;;;;;;344586;153;856355;-58
2022/06/15 04:41:02;;;;;;;4.78;1.19;;;;;;;;;;345778;153;856375;-58
2022/06/15 04:42:04;;;;;;;2.88;1.08;;;;;;;;;;345370;153;856258;-58
2022/06/15 04:43:06;;;;;;;3.80;1.43;;;;;;;;;;345763;153;856886;-58
2022/06/15 04:44:08;;;;;;;1.96;1.06;;;;;;;;;;344727;153;856552;-58
2022/06/15 04:45:10;;;;;;;3.26;1.51;;;;;;;;;;345827;153;863725;-58
2022/06/15 04:46:12;;;;;;;2.02;1.04;;;;;;;;;;345057;153;856137;-57
2022/06/15 04:47:14;;;;;;;4.57;1.08;;;;;;;;;;342667;153;856945;-58
2022/06/15 04:48:15;;;;;;;3.61;1.29;;;;;;;;;;344154;153;856217;-58
2022/06/15 04:51:11;;;;;;;4.03;1.14;;;;;;;14.82;54.32;100059.89;402683;130;857241;-60
2022/06/15 04:52:13;;;;;;;4.16;0.99;;;;;;;14.82;54.32;100059.89;394606;132;858793;-60
2022/06/15 04:53:15;;;;;;;2.26;1.14;;;;;;;14.93;54.83;100064.87;394141;132;857192;-60
2022/06/15 04:54:17;;;;;;;4.88;1.23;;;;;;;14.79;54.93;100067.78;393161;132;857721;-60
2022/06/15 04:55:19;;;;;;;2.93;0.96;;;;;;;14.86;54.70;100068.52;394637;132;864694;-59
2022/06/15 04:56:23;;;;;;;1.58;0.96;;;;;;;14.81;54.99;100066.00;395633;132;858575;-57
2022/06/15 04:57:25;;;;;;;2.09;0.85;;;;;;;14.96;54.69;100070.00;392945;132;857227;-60
2022/06/15 04:58:26;;;;;;;2.44;1.07;;;;;;;15.07;54.26;100061.06;393744;132;864166;-60
2022/06/15 04:59:28;;;;;;;2.83;1.31;;;;;;;15.22;54.29;100062.41;393951;132;857263;-60
2022/06/15 05:00:34;;;;;;;3.59;1.21;;;;;;;15.32;54.07;100063.89;391403;132;866143;-60
2022/06/15 05:01:37;;;;;;;4.78;1.04;;;;;;;15.26;53.75;100066.66;398201;132;857226;-58
2022/06/15 05:02:39;;;;;;;2.28;1.11;;;;;;;15.23;54.12;100067.61;394044;132;857916;-58
2022/06/15 05:03:41;;;;;;;2.27;1.13;;;;;;;15.30;54.37;100069.16;393678;132;857235;-60
2022/06/15 05:04:43;;;;;;;2.67;1.00;;;;;;;15.39;54.38;100067.21;393934;132;866711;-57
2022/06/15 05:05:45;;;;;;;2.81;0.99;;;;;;;15.53;54.36;100069.47;394274;132;857251;-59
2022/06/15 05:06:47;;;;;;;2.33;1.06;;;;;;;15.61;53.05;100065.73;393833;132;856182;-59
2022/06/15 05:07:49;;;;;;;4.31;1.23;;;;;;;15.63;53.16;100063.95;394651;132;856698;-59
2022/06/15 05:08:51;;;;;;;2.01;0.93;;;;;;;15.60;53.26;100069.25;391173;132;856837;-59
2022/06/15 05:09:53;;;;;;;16.26;1.47;;;;;;;15.70;53.27;100067.26;391032;135;861229;-59
2022/06/15 05:10:55;;;;;;;3.19;1.18;;;;;;;15.52;52.91;100059.93;389831;135;863917;-58
2022/06/15 05:11:56;;;;;;;3.22;1.14;;;;;;;;;;392709;135;857190;-58
2022/06/15 05:12:58;;;;;;;2.51;1.04;;;;;;;;;;390342;135;865237;-58
2022/06/15 05:14:00;;;;;;;2.32;1.26;;;;;;;;;;389841;135;864817;-58
2022/06/15 05:15:02;;;;;;;4.29;1.17;;;;;;;;;;392247;135;866285;-59
2022/06/15 05:16:04;;;;;;;1.53;0.90;;;;;;;;;;388872;135;864521;-59
2022/06/15 05:17:05;;;;;;;4.66;0.93;;;;;;;;;;388135;135;857733;-59
2022/06/15 05:18:07;;;;;;;2.61;1.05;;;;;;;;;;386107;135;857138;-57
2022/06/15 05:19:09;;;;;;;3.56;1.69;;;;;;;;;;387556;135;858630;-57
2022/06/15 05:20:11;;;;;;;3.31;1.02;;;;;;;;;;389207;135;864449;-58
2022/06/15 05:21:13;;;;;;;2.29;0.99;;;;;;;;;;390146;135;857187;-59
2022/06/15 05:22:15;;;;;;;1.55;0.89;;;;;;;;;;390065;135;858854;-58
2022/06/15 05:23:16;;;;;;;3.02;0.99;;;;;;;;;;392389;135;865267;-59
2022/06/15 05:24:18;;;;;;;2.89;1.51;;;;;;;;;;390197;135;864947;-58
2022/06/15 05:25:20;;;;;;;3.32;1.26;;;;;;;;;;389476;135;866064;-58
2022/06/15 05:26:24;;;;;;;4.15;1.15;;;;;;;;;;388890;135;859621;-59
2022/06/15 05:27:25;;;;;;;2.74;1.31;;;;;;;;;;389615;135;857270;-59
2022/06/15 05:28:27;;;;;;;3.86;1.33;;;;;;;;;;389262;135;856475;-60
2022/06/15 05:29:28;;;;;;;2.49;1.11;;;;;;;;;;390071;135;865357;-60
2022/06/15 05:30:30;;;;;;;3.27;1.17;;;;;;;;;;388500;135;857245;-59
2022/06/15 05:31:31;;;;;;;4.56;0.89;;;;;;;;;;390347;135;859101;-59
2022/06/15 05:32:33;;;;;;;2.56;1.15;;;;;;;;;;388958;135;858624;-58
2022/06/15 05:33:36;;;;;;;3.47;0.90;;;;;;;;;;387952;135;857215;-57
2022/06/15 05:34:38;;;;;;;1.73;0.98;;;;;;;;;;383097;138;858729;-58
2022/06/15 05:35:40;;;;;;;3.53;1.15;;;;;;;;;;383163;138;861568;-58
2022/06/15 05:36:43;;;;;;;5.78;1.32;;;;;;;;;;388706;135;866307;-58
2022/06/15 05:37:45;;;;;;;4.56;1.23;;;;;;;;;;372325;141;857390;-59
2022/06/15 05:38:46;;;;;;;2.93;1.43;;;;;;;;;;373170;141;857465;-58
2022/06/15 05:39:48;;;;;;;6.51;1.27;;;;;;;;;;388029;135;866851;-58
2022/06/15 05:40:50;;;;;;;2.11;1.29;;;;;;;;;;388286;135;858110;-58
2022/06/15 05:41:52;;;;;;;2.78;1.10;;;;;;;;;;387225;135;857347;-58
2022/06/15 05:42:54;;;;;;;5.51;1.61;;;;;;;;;;391010;135;859180;-57
2022/06/15 05:44:11;;;;;;;4.71;1.27;;;;;;;;;;388739;135;858224;-58
2022/06/15 05:45:08;;;;;;;3.42;0.99;;;;;;;;;;387869;135;865089;-59
2022/06/15 05:46:12;;;;;;;2.78;1.11;;;;;;;;;;387609;136;858740;-58
2022/06/15 05:47:14;;;;;;;4.14;1.37;;;;;;;;;;386877;135;857250;-60
2022/06/15 05:48:15;;;;;;;1.74;1.25;;;;;;;;;;388852;135;858716;-59
2022/06/15 05:49:17;;;;;;;3.76;1.02;;;;;;;;;;388750;135;866548;-59
2022/06/15 05:50:20;;;;;;;3.37;0.95;;;;;;;;;;387929;135;860365;-59
2022/06/15 05:51:21;;;;;;;3.16;1.14;;;;;;;;;;386986;135;866233;-63
2022/06/15 05:52:23;;;;;;;2.94;1.04;;;;;;;;;;387895;135;857286;-61
2022/06/15 05:53:24;;;;;;;3.34;0.91;;;;;;;;;;389990;135;859181;-63
2022/06/15 05:54:26;;;;;;;4.19;0.91;;;;;;;;;;389693;135;857203;-62
2022/06/15 05:55:28;;;;;;;2.00;0.99;;;;;;;;;;390887;135;857163;-59
2022/06/15 05:56:33;;;;;;;1.46;0.72;;;;;;;;;;391120;135;865603;-60
2022/06/15 05:57:33;;;;;;;2.99;1.14;;;;;;;;;;389036;135;857151;-60
2022/06/15 05:58:34;;;;;;;5.46;1.04;;;;;;;;;;389808;135;857211;-61
2022/06/15 05:59:36;;;;;;;3.18;0.94;;;;;;;;;;389537;135;858901;-60
2022/06/15 06:00:38;;;;;;;4.14;1.26;;;;;;;;;;389280;135;858045;-60
2022/06/15 06:01:41;;;;;;;3.45;1.31;;;;;;;;;;388644;135;864674;-59
2022/06/15 06:02:42;;;;;;;5.86;1.13;;;;;;;;;;388368;135;857401;-58
2022/06/15 06:03:44;;;;;;;1.79;1.00;;;;;;;;;;388871;136;858665;-63
2022/06/15 06:04:45;;;;;;;1.61;1.10;;;;;;;;;;387002;135;857220;-60
2022/06/15 06:05:47;;;;;;;2.36;1.40;;;;;;;;;;390373;135;857269;-57
2022/06/15 06:06:50;;;;;;;2.11;0.92;;;;;;;;;;388217;135;864935;-59
2022/06/15 06:07:52;;;;;;;2.75;1.02;;;;;;;;;;388457;135;864953;-59
2022/06/15 06:08:53;;;;;;;5.04;1.83;;;;;;;;;;386224;135;864579;-59
2022/06/15 06:09:55;;;;;;;3.26;0.99;;;;;;;;;;389946;135;858272;-58
2022/06/15 06:10:57;;;;;;;2.56;1.11;;;;;;;;;;387949;136;856756;-59
2022/06/15 06:11:58;;;;;;;3.91;1.08;;;;;;;;;;387143;135;864509;-58
2022/06/15 06:13:00;;;;;;;4.76;1.18;;;;;;;;;;386623;135;858030;-57
2022/06/15 06:14:02;;;;;;;4.18;1.17;;;;;;;;;;387190;136;858292;-58